sensor_id;sensor_type;location;lat;lon;timestamp;temperature;humidity
15991;DHT22;8100;50.994;4.538;2023-05-24T00:00:00;7.80;99.90
15991;DHT22;8100;50.994;4.538;2023-05-24T00:02:49;7.90;99.90
15991;DHT22;8100;50.994;4.538;2023-05-24T00:05:37;7.90;99.90
15991;DHT22;8100;50.994;4.538;2023-05-24T00:08:26;7.80;99.90
15991;DHT22;8100;50.994;4.538;2023-05-24T00:11:14;7.90;99.90
15991;DHT22;8100;50.994;4.538;2023-05-24T00:14:02;7.80;99.90
15991;DHT22;8100;50.994;4.538;2023-05-24T00:16:49;7.80;99.90
15991;DHT22;8100;50.994;4.538;2023-05-24T00:19:36;7.70;99.90
15991;DHT22;8100;50.994;4.538;2023-05-24T00:22:24;7.60;99.90
15991;DHT22;8100;50.994;4.538;2023-05-24T00:25:11;7.60;99.90
15991;DHT22;8100;50.994;4.538;2023-05-24T00:28:00;7.60;99.90
15991;DHT22;8100;50.994;4.538;2023-05-24T00:30:47;7.60;99.90
15991;DHT22;8100;50.994;4.538;2023-05-24T00:33:36;7.60;99.90
15991;DHT22;8100;50.994;4.538;2023-05-24T00:36:23;7.60;99.90
15991;DHT22;8100;50.994;4.538;2023-05-24T00:39:10;7.60;99.90
15991;DHT22;8100;50.994;4.538;2023-05-24T00:41:58;7.50;99.90
15991;DHT22;8100;50.994;4.538;2023-05-24T00:44:47;7.40;99.90
15991;DHT22;8100;50.994;4.538;2023-05-24T00:47:34;7.40;99.90
15991;DHT22;8100;50.994;4.538;2023-05-24T00:50:22;7.40;99.90
15991;DHT22;8100;50.994;4.538;2023-05-24T00:53:10;7.40;99.90
15991;DHT22;8100;50.994;4.538;2023-05-24T00:55:58;7.40;99.90
15991;DHT22;8100;50.994;4.538;2023-05-24T00:58:45;7.30;99.90
15991;DHT22;8100;50.994;4.538;2023-05-24T01:01:34;7.40;99.90
15991;DHT22;8100;50.994;4.538;2023-05-24T01:04:22;7.30;99.90
15991;DHT22;8100;50.994;4.538;2023-05-24T01:07:22;7.40;99.90
15991;DHT22;8100;50.994;4.538;2023-05-24T01:10:17;7.30;99.90
15991;DHT22;8100;50.994;4.538;2023-05-24T01:13:14;7.30;99.90
15991;DHT22;8100;50.994;4.538;2023-05-24T01:16:09;7.30;99.90
15991;DHT22;8100;50.994;4.538;2023-05-24T01:19:04;7.20;99.90
15991;DHT22;8100;50.994;4.538;2023-05-24T01:22:00;7.10;99.90
15991;DHT22;8100;50.994;4.538;2023-05-24T01:25:02;7.10;99.90
15991;DHT22;8100;50.994;4.538;2023-05-24T01:27:51;7.10;99.90
15991;DHT22;8100;50.994;4.538;2023-05-24T01:30:39;7.00;99.90
15991;DHT22;8100;50.994;4.538;2023-05-24T01:33:27;6.90;99.90
15991;DHT22;8100;50.994;4.538;2023-05-24T01:36:15;6.90;99.90
15991;DHT22;8100;50.994;4.538;2023-05-24T01:39:02;6.80;99.90
15991;DHT22;8100;50.994;4.538;2023-05-24T01:41:57;6.80;99.90
15991;DHT22;8100;50.994;4.538;2023-05-24T01:44:55;6.70;99.90
15991;DHT22;8100;50.994;4.538;2023-05-24T01:47:55;6.70;99.90
15991;DHT22;8100;50.994;4.538;2023-05-24T01:50:48;6.60;99.90
15991;DHT22;8100;50.994;4.538;2023-05-24T01:53:40;6.60;99.90
15991;DHT22;8100;50.994;4.538;2023-05-24T01:56:32;6.60;99.90
15991;DHT22;8100;50.994;4.538;2023-05-24T01:59:21;6.50;99.90
15991;DHT22;8100;50.994;4.538;2023-05-24T02:02:11;6.50;99.90
15991;DHT22;8100;50.994;4.538;2023-05-24T02:04:58;6.40;99.90
15991;DHT22;8100;50.994;4.538;2023-05-24T02:07:46;6.40;99.90
15991;DHT22;8100;50.994;4.538;2023-05-24T02:10:33;6.40;99.90
15991;DHT22;8100;50.994;4.538;2023-05-24T02:13:23;6.40;99.90
15991;DHT22;8100;50.994;4.538;2023-05-24T02:16:10;6.30;99.90
15991;DHT22;8100;50.994;4.538;2023-05-24T02:18:59;6.30;99.90
15991;DHT22;8100;50.994;4.538;2023-05-24T02:21:47;6.20;99.90
15991;DHT22;8100;50.994;4.538;2023-05-24T02:24:34;6.20;99.90
15991;DHT22;8100;50.994;4.538;2023-05-24T02:27:22;6.20;99.90
15991;DHT22;8100;50.994;4.538;2023-05-24T02:30:10;6.10;99.90
15991;DHT22;8100;50.994;4.538;2023-05-24T02:32:58;6.10;99.90
15991;DHT22;8100;50.994;4.538;2023-05-24T02:35:47;6.10;99.90
15991;DHT22;8100;50.994;4.538;2023-05-24T02:38:34;6.00;99.90
15991;DHT22;8100;50.994;4.538;2023-05-24T02:41:22;6.00;99.90
15991;DHT22;8100;50.994;4.538;2023-05-24T02:44:10;5.90;99.90
15991;DHT22;8100;50.994;4.538;2023-05-24T02:46:57;5.90;99.90
15991;DHT22;8100;50.994;4.538;2023-05-24T02:49:44;5.90;99.90
15991;DHT22;8100;50.994;4.538;2023-05-24T02:52:33;5.80;99.90
15991;DHT22;8100;50.994;4.538;2023-05-24T02:55:21;5.90;99.90
15991;DHT22;8100;50.994;4.538;2023-05-24T02:58:08;5.80;99.90
15991;DHT22;8100;50.994;4.538;2023-05-24T03:00:57;5.80;99.90
15991;DHT22;8100;50.994;4.538;2023-05-24T03:03:44;5.70;99.90
15991;DHT22;8100;50.994;4.538;2023-05-24T03:06:31;5.60;99.90
15991;DHT22;8100;50.994;4.538;2023-05-24T03:09:20;5.70;99.90
15991;DHT22;8100;50.994;4.538;2023-05-24T03:12:08;5.70;99.90
15991;DHT22;8100;50.994;4.538;2023-05-24T03:14:55;5.70;99.90
15991;DHT22;8100;50.994;4.538;2023-05-24T03:17:42;5.50;99.90
15991;DHT22;8100;50.994;4.538;2023-05-24T03:20:30;5.50;99.90
15991;DHT22;8100;50.994;4.538;2023-05-24T03:23:18;5.50;99.90
15991;DHT22;8100;50.994;4.538;2023-05-24T03:26:07;5.40;99.90
15991;DHT22;8100;50.994;4.538;2023-05-24T03:28:54;5.50;99.90
15991;DHT22;8100;50.994;4.538;2023-05-24T03:31:41;5.50;99.90
15991;DHT22;8100;50.994;4.538;2023-05-24T03:34:29;5.50;99.90
15991;DHT22;8100;50.994;4.538;2023-05-24T03:37:16;5.50;99.90
15991;DHT22;8100;50.994;4.538;2023-05-24T03:40:04;5.50;99.90
15991;DHT22;8100;50.994;4.538;2023-05-24T03:42:53;5.40;99.90
15991;DHT22;8100;50.994;4.538;2023-05-24T03:45:41;5.40;99.90
15991;DHT22;8100;50.994;4.538;2023-05-24T03:48:28;5.40;99.90
15991;DHT22;8100;50.994;4.538;2023-05-24T03:51:15;5.40;99.90
15991;DHT22;8100;50.994;4.538;2023-05-24T03:54:03;5.40;99.90
15991;DHT22;8100;50.994;4.538;2023-05-24T03:56:51;5.40;99.90
15991;DHT22;8100;50.994;4.538;2023-05-24T03:59:40;5.40;99.90
15991;DHT22;8100;50.994;4.538;2023-05-24T04:02:27;5.50;99.90
15991;DHT22;8100;50.994;4.538;2023-05-24T04:05:14;5.50;99.90
15991;DHT22;8100;50.994;4.538;2023-05-24T04:08:02;5.50;99.90
15991;DHT22;8100;50.994;4.538;2023-05-24T04:10:49;5.50;99.90
15991;DHT22;8100;50.994;4.538;2023-05-24T04:13:36;5.50;99.90
15991;DHT22;8100;50.994;4.538;2023-05-24T04:16:25;5.50;99.90
15991;DHT22;8100;50.994;4.538;2023-05-24T04:19:12;5.60;99.90
15991;DHT22;8100;50.994;4.538;2023-05-24T04:22:00;5.70;99.90
15991;DHT22;8100;50.994;4.538;2023-05-24T04:24:47;5.70;99.90
15991;DHT22;8100;50.994;4.538;2023-05-24T04:27:35;5.70;99.90
15991;DHT22;8100;50.994;4.538;2023-05-24T04:30:22;5.70;99.90
15991;DHT22;8100;50.994;4.538;2023-05-24T04:33:11;5.70;99.90
15991;DHT22;8100;50.994;4.538;2023-05-24T04:35:59;5.80;99.90
15991;DHT22;8100;50.994;4.538;2023-05-24T04:38:47;5.90;99.90
15991;DHT22;8100;50.994;4.538;2023-05-24T04:41:35;6.10;99.90
15991;DHT22;8100;50.994;4.538;2023-05-24T04:44:23;6.20;99.90
15991;DHT22;8100;50.994;4.538;2023-05-24T04:47:10;6.20;99.90
15991;DHT22;8100;50.994;4.538;2023-05-24T04:49:59;6.40;99.90
15991;DHT22;8100;50.994;4.538;2023-05-24T04:52:46;6.50;99.90
15991;DHT22;8100;50.994;4.538;2023-05-24T04:55:34;6.60;99.90
15991;DHT22;8100;50.994;4.538;2023-05-24T04:58:21;6.70;99.90
15991;DHT22;8100;50.994;4.538;2023-05-24T05:01:09;6.80;99.90
15991;DHT22;8100;50.994;4.538;2023-05-24T05:03:56;7.00;99.90
15991;DHT22;8100;50.994;4.538;2023-05-24T05:06:46;7.30;99.90
15991;DHT22;8100;50.994;4.538;2023-05-24T05:09:33;7.50;99.90
15991;DHT22;8100;50.994;4.538;2023-05-24T05:12:21;7.60;99.90
15991;DHT22;8100;50.994;4.538;2023-05-24T05:15:09;7.90;99.90
15991;DHT22;8100;50.994;4.538;2023-05-24T05:17:57;8.10;99.90
15991;DHT22;8100;50.994;4.538;2023-05-24T05:20:45;8.20;99.90
15991;DHT22;8100;50.994;4.538;2023-05-24T05:23:33;8.50;99.90
15991;DHT22;8100;50.994;4.538;2023-05-24T05:26:21;8.60;99.90
15991;DHT22;8100;50.994;4.538;2023-05-24T05:29:08;8.70;99.90
15991;DHT22;8100;50.994;4.538;2023-05-24T05:31:55;8.90;99.90
15991;DHT22;8100;50.994;4.538;2023-05-24T05:34:43;9.00;99.90
15991;DHT22;8100;50.994;4.538;2023-05-24T05:37:30;9.10;99.90
15991;DHT22;8100;50.994;4.538;2023-05-24T05:40:19;9.30;99.90
15991;DHT22;8100;50.994;4.538;2023-05-24T05:43:07;9.40;99.90
15991;DHT22;8100;50.994;4.538;2023-05-24T05:45:54;9.50;99.90
15991;DHT22;8100;50.994;4.538;2023-05-24T05:48:42;9.60;99.90
15991;DHT22;8100;50.994;4.538;2023-05-24T05:51:29;9.80;99.90
15991;DHT22;8100;50.994;4.538;2023-05-24T05:54:16;9.90;99.90
15991;DHT22;8100;50.994;4.538;2023-05-24T05:57:05;9.80;97.80
15991;DHT22;8100;50.994;4.538;2023-05-24T05:59:55;10.00;99.90
15991;DHT22;8100;50.994;4.538;2023-05-24T06:02:42;10.10;97.60
15991;DHT22;8100;50.994;4.538;2023-05-24T06:05:30;10.40;64.60
15991;DHT22;8100;50.994;4.538;2023-05-24T06:08:17;10.60;27.00
15991;DHT22;8100;50.994;4.538;2023-05-24T06:11:06;10.80;1.00
15991;DHT22;8100;50.994;4.538;2023-05-24T06:13:54;10.90;1.00
15991;DHT22;8100;50.994;4.538;2023-05-24T06:16:42;11.00;1.00
15991;DHT22;8100;50.994;4.538;2023-05-24T06:19:31;11.10;1.00
15991;DHT22;8100;50.994;4.538;2023-05-24T06:22:19;11.20;1.00
15991;DHT22;8100;50.994;4.538;2023-05-24T06:25:07;11.40;1.00
15991;DHT22;8100;50.994;4.538;2023-05-24T06:27:55;11.40;1.00
15991;DHT22;8100;50.994;4.538;2023-05-24T06:30:44;11.60;1.00
15991;DHT22;8100;50.994;4.538;2023-05-24T06:33:31;11.60;1.00
15991;DHT22;8100;50.994;4.538;2023-05-24T06:36:18;11.70;1.00
15991;DHT22;8100;50.994;4.538;2023-05-24T06:39:05;11.80;1.00
15991;DHT22;8100;50.994;4.538;2023-05-24T06:41:53;11.80;1.00
15991;DHT22;8100;50.994;4.538;2023-05-24T06:44:40;12.10;1.00
15991;DHT22;8100;50.994;4.538;2023-05-24T06:47:29;12.20;1.00
15991;DHT22;8100;50.994;4.538;2023-05-24T06:50:17;12.10;1.00
15991;DHT22;8100;50.994;4.538;2023-05-24T06:53:04;12.30;1.00
15991;DHT22;8100;50.994;4.538;2023-05-24T06:55:52;12.30;1.00
15991;DHT22;8100;50.994;4.538;2023-05-24T06:58:39;12.20;1.00
15991;DHT22;8100;50.994;4.538;2023-05-24T07:01:27;12.20;1.00
15991;DHT22;8100;50.994;4.538;2023-05-24T07:04:16;12.20;1.00
15991;DHT22;8100;50.994;4.538;2023-05-24T07:07:04;12.30;1.00
15991;DHT22;8100;50.994;4.538;2023-05-24T07:09:52;12.50;1.00
15991;DHT22;8100;50.994;4.538;2023-05-24T07:12:39;12.80;1.00
15991;DHT22;8100;50.994;4.538;2023-05-24T07:15:26;13.10;1.00
15991;DHT22;8100;50.994;4.538;2023-05-24T07:18:14;13.20;99.90
15991;DHT22;8100;50.994;4.538;2023-05-24T07:21:03;13.10;1.00
15991;DHT22;8100;50.994;4.538;2023-05-24T07:23:51;13.00;96.70
15991;DHT22;8100;50.994;4.538;2023-05-24T07:26:38;13.20;1.00
15991;DHT22;8100;50.994;4.538;2023-05-24T07:29:25;13.40;1.00
15991;DHT22;8100;50.994;4.538;2023-05-24T07:32:13;13.60;1.00
15991;DHT22;8100;50.994;4.538;2023-05-24T07:35:00;13.50;39.40
15991;DHT22;8100;50.994;4.538;2023-05-24T07:37:50;13.60;99.90
15991;DHT22;8100;50.994;4.538;2023-05-24T07:40:37;13.50;99.90
15991;DHT22;8100;50.994;4.538;2023-05-24T07:43:24;13.70;99.90
15991;DHT22;8100;50.994;4.538;2023-05-24T07:46:12;13.80;99.90
15991;DHT22;8100;50.994;4.538;2023-05-24T07:48:59;14.00;26.80
15991;DHT22;8100;50.994;4.538;2023-05-24T07:51:47;14.10;1.00
15991;DHT22;8100;50.994;4.538;2023-05-24T07:54:36;14.10;1.00
15991;DHT22;8100;50.994;4.538;2023-05-24T07:57:23;14.30;1.00
15991;DHT22;8100;50.994;4.538;2023-05-24T08:00:11;14.50;1.00
15991;DHT22;8100;50.994;4.538;2023-05-24T08:03:00;14.80;1.00
15991;DHT22;8100;50.994;4.538;2023-05-24T08:05:48;14.70;1.00
15991;DHT22;8100;50.994;4.538;2023-05-24T08:08:35;14.70;1.00
15991;DHT22;8100;50.994;4.538;2023-05-24T08:11:24;14.60;1.00
15991;DHT22;8100;50.994;4.538;2023-05-24T08:14:11;14.30;1.00
15991;DHT22;8100;50.994;4.538;2023-05-24T08:16:58;14.00;99.90
15991;DHT22;8100;50.994;4.538;2023-05-24T08:19:46;14.10;1.00
15991;DHT22;8100;50.994;4.538;2023-05-24T08:22:33;14.20;1.00
15991;DHT22;8100;50.994;4.538;2023-05-24T08:25:21;13.90;1.00
15991;DHT22;8100;50.994;4.538;2023-05-24T08:28:10;13.80;1.00
15991;DHT22;8100;50.994;4.538;2023-05-24T08:30:57;14.20;1.00
15991;DHT22;8100;50.994;4.538;2023-05-24T08:33:45;14.80;99.90
15991;DHT22;8100;50.994;4.538;2023-05-24T08:36:35;15.00;99.90
15991;DHT22;8100;50.994;4.538;2023-05-24T08:39:22;14.90;99.90
15991;DHT22;8100;50.994;4.538;2023-05-24T08:42:09;15.00;99.90
15991;DHT22;8100;50.994;4.538;2023-05-24T08:45:03;15.40;99.90
15991;DHT22;8100;50.994;4.538;2023-05-24T08:47:55;15.30;99.90
15991;DHT22;8100;50.994;4.538;2023-05-24T08:50:43;15.30;50.90
15991;DHT22;8100;50.994;4.538;2023-05-24T08:53:31;15.40;1.00
15991;DHT22;8100;50.994;4.538;2023-05-24T08:56:21;15.70;1.00
15991;DHT22;8100;50.994;4.538;2023-05-24T08:59:10;15.80;1.00
15991;DHT22;8100;50.994;4.538;2023-05-24T09:02:01;15.70;1.00
15991;DHT22;8100;50.994;4.538;2023-05-24T09:04:51;15.90;1.00
15991;DHT22;8100;50.994;4.538;2023-05-24T09:07:39;15.70;1.00
15991;DHT22;8100;50.994;4.538;2023-05-24T09:10:28;15.40;1.00
15991;DHT22;8100;50.994;4.538;2023-05-24T09:13:16;15.70;1.00
15991;DHT22;8100;50.994;4.538;2023-05-24T09:16:05;16.20;1.00
15991;DHT22;8100;50.994;4.538;2023-05-24T09:18:54;16.00;1.00
15991;DHT22;8100;50.994;4.538;2023-05-24T09:21:41;15.50;1.00
15991;DHT22;8100;50.994;4.538;2023-05-24T09:24:29;15.10;1.00
15991;DHT22;8100;50.994;4.538;2023-05-24T09:27:16;15.60;1.00
15991;DHT22;8100;50.994;4.538;2023-05-24T09:30:08;16.40;1.00
15991;DHT22;8100;50.994;4.538;2023-05-24T09:32:58;16.60;1.00
15991;DHT22;8100;50.994;4.538;2023-05-24T09:35:47;16.70;1.00
15991;DHT22;8100;50.994;4.538;2023-05-24T09:38:35;16.70;99.90
15991;DHT22;8100;50.994;4.538;2023-05-24T09:41:22;16.60;1.00
15991;DHT22;8100;50.994;4.538;2023-05-24T09:44:12;16.90;1.00
15991;DHT22;8100;50.994;4.538;2023-05-24T09:47:01;17.20;1.00
15991;DHT22;8100;50.994;4.538;2023-05-24T09:49:51;17.30;1.00
15991;DHT22;8100;50.994;4.538;2023-05-24T09:52:40;17.60;99.90
15991;DHT22;8100;50.994;4.538;2023-05-24T09:55:27;17.50;99.90
15991;DHT22;8100;50.994;4.538;2023-05-24T09:58:16;17.70;99.90
15991;DHT22;8100;50.994;4.538;2023-05-24T10:01:05;18.00;99.90
15991;DHT22;8100;50.994;4.538;2023-05-24T10:03:53;18.40;99.90
15991;DHT22;8100;50.994;4.538;2023-05-24T10:06:42;18.20;3.90
15991;DHT22;8100;50.994;4.538;2023-05-24T10:09:31;18.00;61.00
15991;DHT22;8100;50.994;4.538;2023-05-24T10:12:20;18.10;39.70
15991;DHT22;8100;50.994;4.538;2023-05-24T10:15:10;17.90;1.00
15991;DHT22;8100;50.994;4.538;2023-05-24T10:17:58;17.50;1.00
15991;DHT22;8100;50.994;4.538;2023-05-24T10:20:47;17.30;1.00
15991;DHT22;8100;50.994;4.538;2023-05-24T10:23:37;17.10;1.00
15991;DHT22;8100;50.994;4.538;2023-05-24T10:26:30;17.60;1.00
15991;DHT22;8100;50.994;4.538;2023-05-24T10:29:25;18.40;1.00
15991;DHT22;8100;50.994;4.538;2023-05-24T10:32:15;18.10;1.00
15991;DHT22;8100;50.994;4.538;2023-05-24T10:35:05;17.80;1.00
15991;DHT22;8100;50.994;4.538;2023-05-24T10:37:53;17.50;1.00
15991;DHT22;8100;50.994;4.538;2023-05-24T10:40:41;17.00;1.00
15991;DHT22;8100;50.994;4.538;2023-05-24T10:43:30;17.30;1.00
15991;DHT22;8100;50.994;4.538;2023-05-24T10:46:17;17.70;1.00
15991;DHT22;8100;50.994;4.538;2023-05-24T10:49:07;18.00;1.00
15991;DHT22;8100;50.994;4.538;2023-05-24T10:52:00;18.30;1.00
15991;DHT22;8100;50.994;4.538;2023-05-24T10:55:03;19.00;1.00
15991;DHT22;8100;50.994;4.538;2023-05-24T10:57:54;18.80;1.00
15991;DHT22;8100;50.994;4.538;2023-05-24T11:00:43;18.40;1.00
15991;DHT22;8100;50.994;4.538;2023-05-24T11:03:32;18.30;1.00
15991;DHT22;8100;50.994;4.538;2023-05-24T11:06:45;18.30;1.00
15991;DHT22;8100;50.994;4.538;2023-05-24T11:09:34;18.40;1.00
15991;DHT22;8100;50.994;4.538;2023-05-24T11:12:22;18.00;1.00
15991;DHT22;8100;50.994;4.538;2023-05-24T11:15:22;17.60;1.00
15991;DHT22;8100;50.994;4.538;2023-05-24T11:18:14;18.10;1.00
15991;DHT22;8100;50.994;4.538;2023-05-24T11:21:02;18.10;1.00
15991;DHT22;8100;50.994;4.538;2023-05-24T11:23:50;18.20;1.00
15991;DHT22;8100;50.994;4.538;2023-05-24T11:26:38;18.20;1.00
15991;DHT22;8100;50.994;4.538;2023-05-24T11:29:26;18.10;1.00
15991;DHT22;8100;50.994;4.538;2023-05-24T11:32:14;18.30;1.00
15991;DHT22;8100;50.994;4.538;2023-05-24T11:35:04;18.10;1.00
15991;DHT22;8100;50.994;4.538;2023-05-24T11:37:53;18.00;1.00
15991;DHT22;8100;50.994;4.538;2023-05-24T11:40:42;17.50;1.00
15991;DHT22;8100;50.994;4.538;2023-05-24T11:43:30;17.30;1.00
15991;DHT22;8100;50.994;4.538;2023-05-24T11:46:18;17.50;1.00
15991;DHT22;8100;50.994;4.538;2023-05-24T11:49:06;17.80;1.00
15991;DHT22;8100;50.994;4.538;2023-05-24T11:52:01;17.60;1.00
15991;DHT22;8100;50.994;4.538;2023-05-24T11:54:48;17.60;1.00
15991;DHT22;8100;50.994;4.538;2023-05-24T11:57:37;18.10;1.00
15991;DHT22;8100;50.994;4.538;2023-05-24T12:00:25;18.60;1.00
15991;DHT22;8100;50.994;4.538;2023-05-24T12:03:13;19.20;1.00
15991;DHT22;8100;50.994;4.538;2023-05-24T12:06:01;19.20;1.00
15991;DHT22;8100;50.994;4.538;2023-05-24T12:08:50;19.50;1.00
15991;DHT22;8100;50.994;4.538;2023-05-24T12:11:38;19.50;1.00
15991;DHT22;8100;50.994;4.538;2023-05-24T12:14:28;19.40;1.00
15991;DHT22;8100;50.994;4.538;2023-05-24T12:17:16;18.90;1.00
15991;DHT22;8100;50.994;4.538;2023-05-24T12:20:08;19.00;1.00
15991;DHT22;8100;50.994;4.538;2023-05-24T12:22:57;19.30;1.00
15991;DHT22;8100;50.994;4.538;2023-05-24T12:25:48;19.40;1.00
15991;DHT22;8100;50.994;4.538;2023-05-24T12:28:37;19.30;1.00
15991;DHT22;8100;50.994;4.538;2023-05-24T12:31:25;19.40;1.00
15991;DHT22;8100;50.994;4.538;2023-05-24T12:34:14;19.30;1.00
15991;DHT22;8100;50.994;4.538;2023-05-24T12:37:01;19.50;1.00
15991;DHT22;8100;50.994;4.538;2023-05-24T12:39:49;19.80;1.00
15991;DHT22;8100;50.994;4.538;2023-05-24T12:42:37;20.10;1.00
15991;DHT22;8100;50.994;4.538;2023-05-24T12:45:26;20.30;1.00
15991;DHT22;8100;50.994;4.538;2023-05-24T12:48:13;20.70;1.00
15991;DHT22;8100;50.994;4.538;2023-05-24T12:51:00;20.20;1.00
15991;DHT22;8100;50.994;4.538;2023-05-24T12:53:48;20.10;99.90
15991;DHT22;8100;50.994;4.538;2023-05-24T12:56:36;20.00;99.90
15991;DHT22;8100;50.994;4.538;2023-05-24T12:59:26;20.00;99.90
15991;DHT22;8100;50.994;4.538;2023-05-24T13:02:13;19.80;99.90
15991;DHT22;8100;50.994;4.538;2023-05-24T13:05:00;19.10;99.90
15991;DHT22;8100;50.994;4.538;2023-05-24T13:07:49;18.80;99.90
15991;DHT22;8100;50.994;4.538;2023-05-24T13:10:37;18.60;99.90
15991;DHT22;8100;50.994;4.538;2023-05-24T13:13:24;18.40;99.90
15991;DHT22;8100;50.994;4.538;2023-05-24T13:16:15;18.30;99.90
15991;DHT22;8100;50.994;4.538;2023-05-24T13:19:02;18.50;99.90
15991;DHT22;8100;50.994;4.538;2023-05-24T13:21:49;18.60;99.90
15991;DHT22;8100;50.994;4.538;2023-05-24T13:24:37;18.60;99.90
15991;DHT22;8100;50.994;4.538;2023-05-24T13:27:24;18.50;99.90
15991;DHT22;8100;50.994;4.538;2023-05-24T13:30:13;18.40;99.90
15991;DHT22;8100;50.994;4.538;2023-05-24T13:33:03;18.30;99.90
15991;DHT22;8100;50.994;4.538;2023-05-24T13:35:50;18.10;99.90
15991;DHT22;8100;50.994;4.538;2023-05-24T13:38:38;18.00;99.90
15991;DHT22;8100;50.994;4.538;2023-05-24T13:41:26;17.90;99.90
15991;DHT22;8100;50.994;4.538;2023-05-24T13:44:14;18.20;99.90
15991;DHT22;8100;50.994;4.538;2023-05-24T13:47:02;18.20;99.90
15991;DHT22;8100;50.994;4.538;2023-05-24T13:49:50;18.60;99.90
15991;DHT22;8100;50.994;4.538;2023-05-24T13:52:38;19.10;99.90
15991;DHT22;8100;50.994;4.538;2023-05-24T13:55:25;19.70;99.90
15991;DHT22;8100;50.994;4.538;2023-05-24T13:58:13;19.30;99.90
15991;DHT22;8100;50.994;4.538;2023-05-24T14:01:01;19.10;99.90
15991;DHT22;8100;50.994;4.538;2023-05-24T14:03:48;19.20;99.90
15991;DHT22;8100;50.994;4.538;2023-05-24T14:06:38;18.80;99.90
15991;DHT22;8100;50.994;4.538;2023-05-24T14:09:25;18.60;99.90
15991;DHT22;8100;50.994;4.538;2023-05-24T14:12:13;18.70;99.90
15991;DHT22;8100;50.994;4.538;2023-05-24T14:15:00;19.10;99.90
15991;DHT22;8100;50.994;4.538;2023-05-24T14:17:49;18.90;99.90
15991;DHT22;8100;50.994;4.538;2023-05-24T14:20:37;18.70;99.90
15991;DHT22;8100;50.994;4.538;2023-05-24T14:23:27;18.70;99.90
15991;DHT22;8100;50.994;4.538;2023-05-24T14:26:17;18.30;99.90
15991;DHT22;8100;50.994;4.538;2023-05-24T14:29:04;18.20;99.90
15991;DHT22;8100;50.994;4.538;2023-05-24T14:31:52;17.90;99.90
15991;DHT22;8100;50.994;4.538;2023-05-24T14:34:39;17.90;99.90
15991;DHT22;8100;50.994;4.538;2023-05-24T14:37:26;18.00;99.90
15991;DHT22;8100;50.994;4.538;2023-05-24T14:40:15;17.80;80.60
15991;DHT22;8100;50.994;4.538;2023-05-24T14:43:04;17.80;99.90
15991;DHT22;8100;50.994;4.538;2023-05-24T14:45:52;17.90;99.90
15991;DHT22;8100;50.994;4.538;2023-05-24T14:48:39;18.10;99.90
15991;DHT22;8100;50.994;4.538;2023-05-24T14:51:27;18.50;99.90
15991;DHT22;8100;50.994;4.538;2023-05-24T14:54:14;18.40;99.90
15991;DHT22;8100;50.994;4.538;2023-05-24T14:57:04;18.20;99.90
15991;DHT22;8100;50.994;4.538;2023-05-24T14:59:52;17.90;99.90
15991;DHT22;8100;50.994;4.538;2023-05-24T15:02:39;18.10;99.90
15991;DHT22;8100;50.994;4.538;2023-05-24T15:05:26;18.40;99.90
15991;DHT22;8100;50.994;4.538;2023-05-24T15:08:14;18.60;99.90
15991;DHT22;8100;50.994;4.538;2023-05-24T15:11:01;18.80;99.90
15991;DHT22;8100;50.994;4.538;2023-05-24T15:13:51;18.80;99.90
15991;DHT22;8100;50.994;4.538;2023-05-24T15:16:40;18.70;99.90
15991;DHT22;8100;50.994;4.538;2023-05-24T15:19:27;18.70;99.90
15991;DHT22;8100;50.994;4.538;2023-05-24T15:22:15;18.80;99.90
15991;DHT22;8100;50.994;4.538;2023-05-24T15:25:02;18.70;99.90
15991;DHT22;8100;50.994;4.538;2023-05-24T15:27:49;18.60;99.90
15991;DHT22;8100;50.994;4.538;2023-05-24T15:30:38;18.40;99.90
15991;DHT22;8100;50.994;4.538;2023-05-24T15:33:29;18.60;99.90
15991;DHT22;8100;50.994;4.538;2023-05-24T15:36:17;18.80;99.90
15991;DHT22;8100;50.994;4.538;2023-05-24T15:39:04;18.90;99.90
15991;DHT22;8100;50.994;4.538;2023-05-24T15:41:51;19.00;99.90
15991;DHT22;8100;50.994;4.538;2023-05-24T15:44:39;18.80;99.90
15991;DHT22;8100;50.994;4.538;2023-05-24T15:47:28;18.80;99.90
15991;DHT22;8100;50.994;4.538;2023-05-24T15:50:24;18.80;99.90
15991;DHT22;8100;50.994;4.538;2023-05-24T15:53:11;18.20;99.90
15991;DHT22;8100;50.994;4.538;2023-05-24T15:55:58;18.30;99.90
15991;DHT22;8100;50.994;4.538;2023-05-24T15:58:46;19.20;99.90
15991;DHT22;8100;50.994;4.538;2023-05-24T16:01:33;20.90;1.00
15991;DHT22;8100;50.994;4.538;2023-05-24T16:04:23;22.20;99.90
15991;DHT22;8100;50.994;4.538;2023-05-24T16:07:10;22.40;10.60
15991;DHT22;8100;50.994;4.538;2023-05-24T16:09:58;22.10;1.00
15991;DHT22;8100;50.994;4.538;2023-05-24T16:12:45;21.30;1.00
15991;DHT22;8100;50.994;4.538;2023-05-24T16:15:32;20.80;1.00
15991;DHT22;8100;50.994;4.538;2023-05-24T16:18:21;20.70;1.00
15991;DHT22;8100;50.994;4.538;2023-05-24T16:21:11;21.20;1.00
15991;DHT22;8100;50.994;4.538;2023-05-24T16:23:58;21.30;1.00
15991;DHT22;8100;50.994;4.538;2023-05-24T16:26:48;21.50;1.00
15991;DHT22;8100;50.994;4.538;2023-05-24T16:29:35;20.90;1.00
15991;DHT22;8100;50.994;4.538;2023-05-24T16:32:22;20.20;1.00
15991;DHT22;8100;50.994;4.538;2023-05-24T16:35:10;19.30;1.00
15991;DHT22;8100;50.994;4.538;2023-05-24T16:37:59;19.20;1.00
15991;DHT22;8100;50.994;4.538;2023-05-24T16:40:46;18.90;1.00
15991;DHT22;8100;50.994;4.538;2023-05-24T16:43:34;18.70;1.00
15991;DHT22;8100;50.994;4.538;2023-05-24T16:46:21;18.40;1.00
15991;DHT22;8100;50.994;4.538;2023-05-24T16:49:09;18.50;1.00
15991;DHT22;8100;50.994;4.538;2023-05-24T16:51:56;18.20;1.00
15991;DHT22;8100;50.994;4.538;2023-05-24T16:54:45;18.10;1.00
15991;DHT22;8100;50.994;4.538;2023-05-24T16:57:32;18.30;1.00
15991;DHT22;8100;50.994;4.538;2023-05-24T17:00:20;18.30;1.00
15991;DHT22;8100;50.994;4.538;2023-05-24T17:03:07;18.30;1.00
15991;DHT22;8100;50.994;4.538;2023-05-24T17:05:55;18.20;1.00
15991;DHT22;8100;50.994;4.538;2023-05-24T17:08:43;18.00;1.00
15991;DHT22;8100;50.994;4.538;2023-05-24T17:11:32;17.90;1.00
15991;DHT22;8100;50.994;4.538;2023-05-24T17:14:19;18.00;1.00
15991;DHT22;8100;50.994;4.538;2023-05-24T17:17:06;18.10;1.00
15991;DHT22;8100;50.994;4.538;2023-05-24T17:19:54;18.10;1.00
15991;DHT22;8100;50.994;4.538;2023-05-24T17:22:41;18.10;1.00
15991;DHT22;8100;50.994;4.538;2023-05-24T17:25:28;18.30;1.00
15991;DHT22;8100;50.994;4.538;2023-05-24T17:28:17;18.40;1.00
15991;DHT22;8100;50.994;4.538;2023-05-24T17:31:06;18.30;1.00
15991;DHT22;8100;50.994;4.538;2023-05-24T17:33:54;18.30;1.00
15991;DHT22;8100;50.994;4.538;2023-05-24T17:36:42;18.00;1.00
15991;DHT22;8100;50.994;4.538;2023-05-24T17:39:29;17.70;1.00
15991;DHT22;8100;50.994;4.538;2023-05-24T17:42:17;17.50;1.00
15991;DHT22;8100;50.994;4.538;2023-05-24T17:45:07;17.30;1.00
15991;DHT22;8100;50.994;4.538;2023-05-24T17:47:54;17.00;1.00
15991;DHT22;8100;50.994;4.538;2023-05-24T17:50:42;16.80;1.00
15991;DHT22;8100;50.994;4.538;2023-05-24T17:53:29;16.70;1.00
15991;DHT22;8100;50.994;4.538;2023-05-24T17:56:19;16.50;1.00
15991;DHT22;8100;50.994;4.538;2023-05-24T17:59:08;16.30;1.00
15991;DHT22;8100;50.994;4.538;2023-05-24T18:01:57;16.20;1.00
15991;DHT22;8100;50.994;4.538;2023-05-24T18:04:44;16.00;1.00
15991;DHT22;8100;50.994;4.538;2023-05-24T18:07:31;15.90;1.00
15991;DHT22;8100;50.994;4.538;2023-05-24T18:10:19;15.90;1.00
15991;DHT22;8100;50.994;4.538;2023-05-24T18:13:06;15.80;1.00